sensor_id;sensor_type;location;lat;lon;timestamp;P1;durP1;ratioP1;P2;durP2;ratioP2
36725;SDS011;44936;52.086;5.150;2023-06-14T00:00:38;3.95;;;1.42;;
36725;SDS011;44936;52.086;5.150;2023-06-14T00:03:08;3.13;;;1.55;;
36725;SDS011;44936;52.086;5.150;2023-06-14T00:05:35;2.35;;;1.20;;
36725;SDS011;44936;52.086;5.150;2023-06-14T00:08:05;2.38;;;1.23;;
36725;SDS011;44936;52.086;5.150;2023-06-14T00:10:33;2.85;;;1.17;;
36725;SDS011;44936;52.086;5.150;2023-06-14T00:13:02;2.00;;;1.27;;
36725;SDS011;44936;52.086;5.150;2023-06-14T00:15:33;1.92;;;1.17;;
36725;SDS011;44936;52.086;5.150;2023-06-14T00:17:58;2.50;;;1.20;;
36725;SDS011;44936;52.086;5.150;2023-06-14T00:20:27;3.20;;;1.25;;
36725;SDS011;44936;52.086;5.150;2023-06-14T00:22:57;2.40;;;1.15;;
36725;SDS011;44936;52.086;5.150;2023-06-14T00:25:26;3.05;;;1.25;;
36725;SDS011;44936;52.086;5.150;2023-06-14T00:27:51;3.28;;;1.30;;
36725;SDS011;44936;52.086;5.150;2023-06-14T00:30:18;2.58;;;1.30;;
36725;SDS011;44936;52.086;5.150;2023-06-14T00:32:44;3.08;;;1.13;;
36725;SDS011;44936;52.086;5.150;2023-06-14T00:35:10;3.33;;;1.30;;
36725;SDS011;44936;52.086;5.150;2023-06-14T00:37:36;2.72;;;1.27;;
36725;SDS011;44936;52.086;5.150;2023-06-14T00:40:01;3.10;;;1.40;;
36725;SDS011;44936;52.086;5.150;2023-06-14T00:42:29;2.03;;;0.88;;
36725;SDS011;44936;52.086;5.150;2023-06-14T00:44:55;2.10;;;1.20;;
36725;SDS011;44936;52.086;5.150;2023-06-14T00:47:20;2.10;;;1.02;;
36725;SDS011;44936;52.086;5.150;2023-06-14T00:49:46;2.15;;;1.20;;
36725;SDS011;44936;52.086;5.150;2023-06-14T00:52:13;5.88;;;1.40;;
36725;SDS011;44936;52.086;5.150;2023-06-14T00:54:43;3.15;;;1.10;;
36725;SDS011;44936;52.086;5.150;2023-06-14T00:57:09;2.13;;;1.10;;
36725;SDS011;44936;52.086;5.150;2023-06-14T00:59:36;1.17;;;0.90;;
36725;SDS011;44936;52.086;5.150;2023-06-14T01:02:06;3.22;;;1.15;;
36725;SDS011;44936;52.086;5.150;2023-06-14T01:04:32;2.13;;;1.10;;
36725;SDS011;44936;52.086;5.150;2023-06-14T01:12:25;2.20;;;1.33;;
36725;SDS011;44936;52.086;5.150;2023-06-14T01:14:59;2.05;;;1.10;;
36725;SDS011;44936;52.086;5.150;2023-06-14T01:17:26;4.03;;;1.15;;
36725;SDS011;44936;52.086;5.150;2023-06-14T01:19:52;2.08;;;1.13;;
36725;SDS011;44936;52.086;5.150;2023-06-14T01:22:23;2.58;;;1.10;;
36725;SDS011;44936;52.086;5.150;2023-06-14T01:24:51;4.47;;;0.98;;
36725;SDS011;44936;52.086;5.150;2023-06-14T01:27:21;2.15;;;1.00;;
36725;SDS011;44936;52.086;5.150;2023-06-14T01:29:49;1.77;;;1.15;;
36725;SDS011;44936;52.086;5.150;2023-06-14T01:32:17;2.67;;;1.20;;
36725;SDS011;44936;52.086;5.150;2023-06-14T01:34:44;3.45;;;1.23;;
36725;SDS011;44936;52.086;5.150;2023-06-14T01:37:10;2.88;;;1.20;;
36725;SDS011;44936;52.086;5.150;2023-06-14T01:39:37;1.77;;;1.20;;
36725;SDS011;44936;52.086;5.150;2023-06-14T01:42:02;2.15;;;1.00;;
36725;SDS011;44936;52.086;5.150;2023-06-14T01:44:29;2.75;;;0.80;;
36725;SDS011;44936;52.086;5.150;2023-06-14T01:46:56;2.33;;;1.25;;
36725;SDS011;44936;52.086;5.150;2023-06-14T01:49:22;1.20;;;0.80;;
36725;SDS011;44936;52.086;5.150;2023-06-14T01:51:48;3.58;;;1.05;;
36725;SDS011;44936;52.086;5.150;2023-06-14T01:54:13;1.20;;;0.77;;
36725;SDS011;44936;52.086;5.150;2023-06-14T01:56:39;1.65;;;1.00;;
36725;SDS011;44936;52.086;5.150;2023-06-14T01:59:05;2.15;;;1.02;;
36725;SDS011;44936;52.086;5.150;2023-06-14T02:01:30;5.53;;;1.58;;
36725;SDS011;44936;52.086;5.150;2023-06-14T02:03:55;3.30;;;1.00;;
36725;SDS011;44936;52.086;5.150;2023-06-14T02:06:21;1.30;;;1.08;;
36725;SDS011;44936;52.086;5.150;2023-06-14T02:08:46;1.63;;;1.02;;
36725;SDS011;44936;52.086;5.150;2023-06-14T02:11:11;1.65;;;1.20;;
36725;SDS011;44936;52.086;5.150;2023-06-14T02:13:37;1.70;;;1.05;;
36725;SDS011;44936;52.086;5.150;2023-06-14T02:16:02;2.28;;;1.13;;
36725;SDS011;44936;52.086;5.150;2023-06-14T02:18:27;2.85;;;1.20;;
36725;SDS011;44936;52.086;5.150;2023-06-14T02:20:53;2.92;;;1.17;;
36725;SDS011;44936;52.086;5.150;2023-06-14T02:23:18;1.08;;;0.98;;
36725;SDS011;44936;52.086;5.150;2023-06-14T02:25:43;4.15;;;1.08;;
36725;SDS011;44936;52.086;5.150;2023-06-14T02:28:10;1.80;;;1.40;;
36725;SDS011;44936;52.086;5.150;2023-06-14T02:30:36;1.55;;;1.10;;
36725;SDS011;44936;52.086;5.150;2023-06-14T02:33:01;4.03;;;1.17;;
36725;SDS011;44936;52.086;5.150;2023-06-14T02:35:28;2.80;;;1.30;;
36725;SDS011;44936;52.086;5.150;2023-06-14T02:37:54;1.40;;;0.90;;
36725;SDS011;44936;52.086;5.150;2023-06-14T02:40:20;1.60;;;1.08;;
36725;SDS011;44936;52.086;5.150;2023-06-14T02:42:45;2.03;;;1.20;;
36725;SDS011;44936;52.086;5.150;2023-06-14T02:45:11;3.10;;;1.10;;
36725;SDS011;44936;52.086;5.150;2023-06-14T02:47:36;1.45;;;0.95;;
36725;SDS011;44936;52.086;5.150;2023-06-14T02:50:01;1.63;;;0.95;;
36725;SDS011;44936;52.086;5.150;2023-06-14T02:52:27;4.75;;;1.20;;
36725;SDS011;44936;52.086;5.150;2023-06-14T02:54:53;1.85;;;1.23;;
36725;SDS011;44936;52.086;5.150;2023-06-14T02:57:19;3.10;;;1.70;;
36725;SDS011;44936;52.086;5.150;2023-06-14T02:59:44;1.85;;;0.90;;
36725;SDS011;44936;52.086;5.150;2023-06-14T03:02:10;5.53;;;1.88;;
36725;SDS011;44936;52.086;5.150;2023-06-14T03:04:38;1.38;;;0.90;;
36725;SDS011;44936;52.086;5.150;2023-06-14T03:07:05;2.92;;;1.17;;
36725;SDS011;44936;52.086;5.150;2023-06-14T03:09:37;3.25;;;1.20;;
36725;SDS011;44936;52.086;5.150;2023-06-14T03:12:04;2.85;;;1.20;;
36725;SDS011;44936;52.086;5.150;2023-06-14T03:14:31;2.97;;;1.30;;
36725;SDS011;44936;52.086;5.150;2023-06-14T03:16:58;3.95;;;1.40;;
36725;SDS011;44936;52.086;5.150;2023-06-14T03:19:24;3.35;;;1.10;;
36725;SDS011;44936;52.086;5.150;2023-06-14T03:21:50;1.73;;;1.02;;
36725;SDS011;44936;52.086;5.150;2023-06-14T03:24:16;2.45;;;1.40;;
36725;SDS011;44936;52.086;5.150;2023-06-14T03:26:42;3.22;;;1.17;;
36725;SDS011;44936;52.086;5.150;2023-06-14T03:29:08;5.55;;;1.25;;
36725;SDS011;44936;52.086;5.150;2023-06-14T03:31:34;2.10;;;1.20;;
36725;SDS011;44936;52.086;5.150;2023-06-14T03:33:59;2.72;;;1.27;;
36725;SDS011;44936;52.086;5.150;2023-06-14T03:36:25;5.22;;;1.08;;
36725;SDS011;44936;52.086;5.150;2023-06-14T03:38:51;3.83;;;1.30;;
36725;SDS011;44936;52.086;5.150;2023-06-14T03:41:16;2.17;;;1.08;;
36725;SDS011;44936;52.086;5.150;2023-06-14T03:43:41;1.55;;;1.13;;
36725;SDS011;44936;52.086;5.150;2023-06-14T03:46:07;2.65;;;1.27;;
36725;SDS011;44936;52.086;5.150;2023-06-14T03:48:32;1.83;;;1.05;;
36725;SDS011;44936;52.086;5.150;2023-06-14T03:50:57;3.55;;;1.27;;
36725;SDS011;44936;52.086;5.150;2023-06-14T03:53:23;3.38;;;1.20;;
36725;SDS011;44936;52.086;5.150;2023-06-14T03:55:49;3.10;;;1.08;;
36725;SDS011;44936;52.086;5.150;2023-06-14T03:58:15;3.38;;;1.00;;
36725;SDS011;44936;52.086;5.150;2023-06-14T04:00:41;2.50;;;1.10;;
36725;SDS011;44936;52.086;5.150;2023-06-14T04:03:06;2.83;;;1.13;;
36725;SDS011;44936;52.086;5.150;2023-06-14T04:05:31;2.13;;;1.02;;
36725;SDS011;44936;52.086;5.150;2023-06-14T04:07:57;2.53;;;1.08;;
36725;SDS011;44936;52.086;5.150;2023-06-14T04:10:23;2.03;;;1.00;;
36725;SDS011;44936;52.086;5.150;2023-06-14T04:12:49;3.90;;;1.13;;
36725;SDS011;44936;52.086;5.150;2023-06-14T04:15:15;2.42;;;1.40;;
36725;SDS011;44936;52.086;5.150;2023-06-14T04:17:41;2.75;;;1.10;;
36725;SDS011;44936;52.086;5.150;2023-06-14T04:20:06;1.88;;;1.00;;
36725;SDS011;44936;52.086;5.150;2023-06-14T04:22:34;4.75;;;1.35;;
36725;SDS011;44936;52.086;5.150;2023-06-14T04:25:00;3.35;;;1.38;;
36725;SDS011;44936;52.086;5.150;2023-06-14T04:27:28;2.15;;;1.10;;
36725;SDS011;44936;52.086;5.150;2023-06-14T04:29:56;2.30;;;1.23;;
36725;SDS011;44936;52.086;5.150;2023-06-14T04:32:24;1.98;;;1.50;;
36725;SDS011;44936;52.086;5.150;2023-06-14T04:34:54;2.00;;;1.10;;
36725;SDS011;44936;52.086;5.150;2023-06-14T04:37:21;1.23;;;1.10;;
36725;SDS011;44936;52.086;5.150;2023-06-14T04:39:47;2.63;;;1.23;;
36725;SDS011;44936;52.086;5.150;2023-06-14T04:42:16;2.38;;;1.10;;
36725;SDS011;44936;52.086;5.150;2023-06-14T04:44:45;1.58;;;0.98;;
36725;SDS011;44936;52.086;5.150;2023-06-14T04:47:12;0.82;;;0.75;;
36725;SDS011;44936;52.086;5.150;2023-06-14T04:49:38;1.83;;;1.10;;
36725;SDS011;44936;52.086;5.150;2023-06-14T04:52:05;3.95;;;1.33;;
36725;SDS011;44936;52.086;5.150;2023-06-14T04:54:31;3.38;;;0.88;;
36725;SDS011;44936;52.086;5.150;2023-06-14T04:57:00;2.60;;;1.27;;
36725;SDS011;44936;52.086;5.150;2023-06-14T04:59:25;2.47;;;1.38;;
36725;SDS011;44936;52.086;5.150;2023-06-14T05:01:51;1.52;;;1.02;;
36725;SDS011;44936;52.086;5.150;2023-06-14T05:04:18;1.67;;;1.08;;
36725;SDS011;44936;52.086;5.150;2023-06-14T05:06:44;1.67;;;1.10;;
36725;SDS011;44936;52.086;5.150;2023-06-14T05:09:13;1.80;;;0.88;;
36725;SDS011;44936;52.086;5.150;2023-06-14T05:11:39;1.63;;;1.13;;
36725;SDS011;44936;52.086;5.150;2023-06-14T05:14:07;6.05;;;1.20;;
36725;SDS011;44936;52.086;5.150;2023-06-14T05:16:32;4.15;;;1.40;;
36725;SDS011;44936;52.086;5.150;2023-06-14T05:18:58;1.48;;;1.08;;
36725;SDS011;44936;52.086;5.150;2023-06-14T05:21:23;2.20;;;1.05;;
36725;SDS011;44936;52.086;5.150;2023-06-14T05:23:49;12.05;;;1.20;;
36725;SDS011;44936;52.086;5.150;2023-06-14T05:26:16;2.08;;;1.20;;
36725;SDS011;44936;52.086;5.150;2023-06-14T05:28:41;4.93;;;1.67;;
36725;SDS011;44936;52.086;5.150;2023-06-14T05:31:06;2.50;;;0.95;;
36725;SDS011;44936;52.086;5.150;2023-06-14T05:33:32;4.25;;;1.38;;
36725;SDS011;44936;52.086;5.150;2023-06-14T05:35:57;4.90;;;1.35;;
36725;SDS011;44936;52.086;5.150;2023-06-14T05:38:22;2.38;;;1.20;;
36725;SDS011;44936;52.086;5.150;2023-06-14T05:40:48;2.85;;;1.23;;
36725;SDS011;44936;52.086;5.150;2023-06-14T05:43:13;1.38;;;0.90;;
36725;SDS011;44936;52.086;5.150;2023-06-14T05:45:38;1.77;;;1.10;;
36725;SDS011;44936;52.086;5.150;2023-06-14T05:48:04;2.40;;;1.17;;
36725;SDS011;44936;52.086;5.150;2023-06-14T05:50:29;3.42;;;1.00;;
36725;SDS011;44936;52.086;5.150;2023-06-14T05:52:56;1.38;;;0.65;;
36725;SDS011;44936;52.086;5.150;2023-06-14T05:55:22;1.55;;;0.80;;
36725;SDS011;44936;52.086;5.150;2023-06-14T05:57:47;2.35;;;1.20;;
36725;SDS011;44936;52.086;5.150;2023-06-14T06:00:17;0.95;;;0.90;;
36725;SDS011;44936;52.086;5.150;2023-06-14T06:02:43;2.22;;;0.90;;
36725;SDS011;44936;52.086;5.150;2023-06-14T06:05:12;1.27;;;1.02;;
36725;SDS011;44936;52.086;5.150;2023-06-14T06:07:38;3.10;;;0.90;;
36725;SDS011;44936;52.086;5.150;2023-06-14T06:10:05;1.60;;;1.10;;
36725;SDS011;44936;52.086;5.150;2023-06-14T06:12:31;1.50;;;0.88;;
36725;SDS011;44936;52.086;5.150;2023-06-14T06:14:57;3.25;;;0.95;;
36725;SDS011;44936;52.086;5.150;2023-06-14T06:17:23;3.97;;;0.90;;
36725;SDS011;44936;52.086;5.150;2023-06-14T06:19:48;1.50;;;0.90;;
36725;SDS011;44936;52.086;5.150;2023-06-14T06:22:14;3.42;;;1.00;;
36725;SDS011;44936;52.086;5.150;2023-06-14T06:24:39;2.53;;;1.23;;
36725;SDS011;44936;52.086;5.150;2023-06-14T06:27:04;1.33;;;0.88;;
36725;SDS011;44936;52.086;5.150;2023-06-14T06:29:32;1.65;;;1.10;;
36725;SDS011;44936;52.086;5.150;2023-06-14T06:31:58;2.20;;;1.20;;
36725;SDS011;44936;52.086;5.150;2023-06-14T06:34:23;2.78;;;1.30;;
36725;SDS011;44936;52.086;5.150;2023-06-14T06:36:48;3.42;;;1.40;;
36725;SDS011;44936;52.086;5.150;2023-06-14T06:39:14;3.10;;;1.30;;
36725;SDS011;44936;52.086;5.150;2023-06-14T06:41:40;2.67;;;0.80;;
36725;SDS011;44936;52.086;5.150;2023-06-14T06:44:06;1.17;;;1.08;;
36725;SDS011;44936;52.086;5.150;2023-06-14T06:46:32;1.95;;;0.90;;
36725;SDS011;44936;52.086;5.150;2023-06-14T06:48:58;2.28;;;1.20;;
36725;SDS011;44936;52.086;5.150;2023-06-14T06:51:23;2.55;;;1.10;;
36725;SDS011;44936;52.086;5.150;2023-06-14T06:53:55;1.73;;;0.88;;
36725;SDS011;44936;52.086;5.150;2023-06-14T06:56:20;0.90;;;0.80;;
36725;SDS011;44936;52.086;5.150;2023-06-14T06:58:48;1.98;;;1.17;;
36725;SDS011;44936;52.086;5.150;2023-06-14T07:01:14;1.38;;;1.20;;
36725;SDS011;44936;52.086;5.150;2023-06-14T07:03:39;3.33;;;1.00;;
36725;SDS011;44936;52.086;5.150;2023-06-14T07:06:05;5.30;;;1.63;;
36725;SDS011;44936;52.086;5.150;2023-06-14T07:08:30;2.40;;;1.30;;
36725;SDS011;44936;52.086;5.150;2023-06-14T07:10:56;1.35;;;0.88;;
36725;SDS011;44936;52.086;5.150;2023-06-14T07:13:21;3.17;;;1.25;;
36725;SDS011;44936;52.086;5.150;2023-06-14T07:15:46;1.25;;;1.00;;
36725;SDS011;44936;52.086;5.150;2023-06-14T07:18:12;1.55;;;1.02;;
36725;SDS011;44936;52.086;5.150;2023-06-14T07:20:38;1.67;;;0.95;;
36725;SDS011;44936;52.086;5.150;2023-06-14T07:23:03;1.73;;;1.20;;
36725;SDS011;44936;52.086;5.150;2023-06-14T07:25:30;3.00;;;1.38;;
36725;SDS011;44936;52.086;5.150;2023-06-14T07:27:55;1.25;;;1.15;;
36725;SDS011;44936;52.086;5.150;2023-06-14T07:30:21;2.35;;;1.27;;
36725;SDS011;44936;52.086;5.150;2023-06-14T07:32:50;3.15;;;1.13;;
36725;SDS011;44936;52.086;5.150;2023-06-14T07:35:16;5.53;;;1.20;;
36725;SDS011;44936;52.086;5.150;2023-06-14T07:37:42;3.90;;;1.35;;
36725;SDS011;44936;52.086;5.150;2023-06-14T07:40:07;3.40;;;1.00;;
36725;SDS011;44936;52.086;5.150;2023-06-14T07:42:33;1.27;;;1.13;;
36725;SDS011;44936;52.086;5.150;2023-06-14T07:45:00;1.77;;;1.30;;
36725;SDS011;44936;52.086;5.150;2023-06-14T07:47:25;2.13;;;1.48;;
36725;SDS011;44936;52.086;5.150;2023-06-14T07:49:51;1.50;;;1.10;;
36725;SDS011;44936;52.086;5.150;2023-06-14T07:52:16;5.90;;;1.23;;
36725;SDS011;44936;52.086;5.150;2023-06-14T07:54:42;1.23;;;1.00;;
36725;SDS011;44936;52.086;5.150;2023-06-14T07:57:08;2.40;;;1.20;;
36725;SDS011;44936;52.086;5.150;2023-06-14T07:59:33;3.35;;;1.08;;
36725;SDS011;44936;52.086;5.150;2023-06-14T08:01:59;4.57;;;1.20;;
36725;SDS011;44936;52.086;5.150;2023-06-14T08:04:24;2.08;;;0.93;;
36725;SDS011;44936;52.086;5.150;2023-06-14T08:06:50;2.85;;;1.00;;
36725;SDS011;44936;52.086;5.150;2023-06-14T08:09:15;3.35;;;1.10;;
36725;SDS011;44936;52.086;5.150;2023-06-14T08:11:41;2.78;;;1.13;;
36725;SDS011;44936;52.086;5.150;2023-06-14T08:14:06;2.10;;;1.20;;
36725;SDS011;44936;52.086;5.150;2023-06-14T08:16:32;2.72;;;0.95;;
36725;SDS011;44936;52.086;5.150;2023-06-14T08:18:57;2.05;;;1.13;;
36725;SDS011;44936;52.086;5.150;2023-06-14T08:21:22;2.92;;;1.08;;
36725;SDS011;44936;52.086;5.150;2023-06-14T08:23:48;2.15;;;0.98;;
36725;SDS011;44936;52.086;5.150;2023-06-14T08:26:14;1.02;;;0.85;;
36725;SDS011;44936;52.086;5.150;2023-06-14T08:28:39;3.53;;;1.20;;
36725;SDS011;44936;52.086;5.150;2023-06-14T08:31:05;1.85;;;0.93;;
36725;SDS011;44936;52.086;5.150;2023-06-14T08:33:30;1.27;;;0.75;;
36725;SDS011;44936;52.086;5.150;2023-06-14T08:35:58;1.88;;;1.00;;
36725;SDS011;44936;52.086;5.150;2023-06-14T08:38:25;1.75;;;0.95;;
36725;SDS011;44936;52.086;5.150;2023-06-14T08:40:52;1.30;;;0.90;;
36725;SDS011;44936;52.086;5.150;2023-06-14T08:43:21;3.67;;;1.02;;
36725;SDS011;44936;52.086;5.150;2023-06-14T08:45:47;1.75;;;0.90;;
36725;SDS011;44936;52.086;5.150;2023-06-14T08:48:16;2.63;;;0.80;;
36725;SDS011;44936;52.086;5.150;2023-06-14T08:50:45;4.03;;;0.95;;
36725;SDS011;44936;52.086;5.150;2023-06-14T08:53:13;3.88;;;0.73;;
36725;SDS011;44936;52.086;5.150;2023-06-14T08:55:45;2.85;;;0.70;;
36725;SDS011;44936;52.086;5.150;2023-06-14T08:58:12;1.60;;;0.85;;
36725;SDS011;44936;52.086;5.150;2023-06-14T09:00:39;2.22;;;1.00;;
36725;SDS011;44936;52.086;5.150;2023-06-14T09:03:06;3.35;;;1.30;;
36725;SDS011;44936;52.086;5.150;2023-06-14T09:05:38;1.17;;;0.63;;
36725;SDS011;44936;52.086;5.150;2023-06-14T09:08:04;1.23;;;0.80;;
36725;SDS011;44936;52.086;5.150;2023-06-14T09:10:30;1.92;;;0.70;;
36725;SDS011;44936;52.086;5.150;2023-06-14T09:12:58;2.10;;;0.80;;
36725;SDS011;44936;52.086;5.150;2023-06-14T09:15:25;2.38;;;0.70;;
36725;SDS011;44936;52.086;5.150;2023-06-14T09:17:51;1.63;;;0.77;;
36725;SDS011;44936;52.086;5.150;2023-06-14T09:20:16;1.08;;;0.85;;
36725;SDS011;44936;52.086;5.150;2023-06-14T09:22:43;2.05;;;0.90;;
36725;SDS011;44936;52.086;5.150;2023-06-14T09:25:09;1.60;;;0.68;;
36725;SDS011;44936;52.086;5.150;2023-06-14T09:27:34;2.50;;;0.70;;
36725;SDS011;44936;52.086;5.150;2023-06-14T09:30:01;0.75;;;0.50;;
36725;SDS011;44936;52.086;5.150;2023-06-14T09:32:30;2.30;;;0.52;;
36725;SDS011;44936;52.086;5.150;2023-06-14T09:34:55;1.52;;;0.80;;
36725;SDS011;44936;52.086;5.150;2023-06-14T09:37:27;2.85;;;0.70;;
36725;SDS011;44936;52.086;5.150;2023-06-14T09:39:54;1.48;;;0.80;;
36725;SDS011;44936;52.086;5.150;2023-06-14T09:42:20;2.60;;;0.65;;
36725;SDS011;44936;52.086;5.150;2023-06-14T09:44:49;1.85;;;0.50;;
36725;SDS011;44936;52.086;5.150;2023-06-14T09:47:15;1.10;;;0.60;;
36725;SDS011;44936;52.086;5.150;2023-06-14T09:49:41;1.67;;;0.82;;
36725;SDS011;44936;52.086;5.150;2023-06-14T09:52:07;0.90;;;0.50;;
36725;SDS011;44936;52.086;5.150;2023-06-14T09:54:39;0.88;;;0.60;;
36725;SDS011;44936;52.086;5.150;2023-06-14T09:57:12;0.85;;;0.57;;
36725;SDS011;44936;52.086;5.150;2023-06-14T09:59:42;0.75;;;0.50;;
36725;SDS011;44936;52.086;5.150;2023-06-14T10:02:11;1.85;;;0.63;;
36725;SDS011;44936;52.086;5.150;2023-06-14T10:04:44;0.88;;;0.50;;
36725;SDS011;44936;52.086;5.150;2023-06-14T10:07:16;0.50;;;0.50;;
36725;SDS011;44936;52.086;5.150;2023-06-14T10:09:45;2.35;;;0.50;;
36725;SDS011;44936;52.086;5.150;2023-06-14T10:12:17;0.35;;;0.28;;
36725;SDS011;44936;52.086;5.150;2023-06-14T10:14:50;1.95;;;0.73;;
36725;SDS011;44936;52.086;5.150;2023-06-14T10:17:20;0.68;;;0.68;;
36725;SDS011;44936;52.086;5.150;2023-06-14T10:19:56;1.48;;;0.60;;
36725;SDS011;44936;52.086;5.150;2023-06-14T10:22:40;1.88;;;0.50;;
36725;SDS011;44936;52.086;5.150;2023-06-14T10:25:13;0.45;;;0.45;;
36725;SDS011;44936;52.086;5.150;2023-06-14T10:27:50;0.65;;;0.65;;
36725;SDS011;44936;52.086;5.150;2023-06-14T10:30:16;0.90;;;0.60;;
36725;SDS011;44936;52.086;5.150;2023-06-14T10:35:32;1.02;;;0.65;;
36725;SDS011;44936;52.086;5.150;2023-06-14T10:38:07;0.90;;;0.55;;
36725;SDS011;44936;52.086;5.150;2023-06-14T10:40:34;0.60;;;0.43;;
36725;SDS011;44936;52.086;5.150;2023-06-14T10:43:01;1.02;;;0.60;;
36725;SDS011;44936;52.086;5.150;2023-06-14T10:48:40;1.33;;;0.88;;
36725;SDS011;44936;52.086;5.150;2023-06-14T10:51:11;2.08;;;0.70;;
36725;SDS011;44936;52.086;5.150;2023-06-14T10:53:41;0.40;;;0.40;;
36725;SDS011;44936;52.086;5.150;2023-06-14T10:56:07;0.45;;;0.43;;
36725;SDS011;44936;52.086;5.150;2023-06-14T10:58:33;0.57;;;0.40;;
36725;SDS011;44936;52.086;5.150;2023-06-14T11:00:58;0.30;;;0.30;;
36725;SDS011;44936;52.086;5.150;2023-06-14T11:03:36;0.57;;;0.50;;
36725;SDS011;44936;52.086;5.150;2023-06-14T11:06:16;1.65;;;0.60;;
36725;SDS011;44936;52.086;5.150;2023-06-14T11:09:12;1.23;;;0.30;;
36725;SDS011;44936;52.086;5.150;2023-06-14T11:12:02;0.65;;;0.50;;
36725;SDS011;44936;52.086;5.150;2023-06-14T11:14:31;1.75;;;0.30;;
36725;SDS011;44936;52.086;5.150;2023-06-14T11:16:57;1.67;;;0.52;;
36725;SDS011;44936;52.086;5.150;2023-06-14T11:19:22;0.95;;;0.52;;
36725;SDS011;44936;52.086;5.150;2023-06-14T11:21:48;0.73;;;0.45;;
36725;SDS011;44936;52.086;5.150;2023-06-14T11:24:14;0.68;;;0.40;;
36725;SDS011;44936;52.086;5.150;2023-06-14T11:26:39;0.43;;;0.40;;
36725;SDS011;44936;52.086;5.150;2023-06-14T11:29:05;2.22;;;0.50;;
36725;SDS011;44936;52.086;5.150;2023-06-14T11:31:30;0.65;;;0.50;;
36725;SDS011;44936;52.086;5.150;2023-06-14T11:33:56;0.43;;;0.43;;
36725;SDS011;44936;52.086;5.150;2023-06-14T11:36:25;0.50;;;0.50;;
36725;SDS011;44936;52.086;5.150;2023-06-14T11:39:01;2.15;;;0.57;;
36725;SDS011;44936;52.086;5.150;2023-06-14T11:41:32;0.80;;;0.60;;
36725;SDS011;44936;52.086;5.150;2023-06-14T11:44:00;2.22;;;0.80;;
36725;SDS011;44936;52.086;5.150;2023-06-14T11:46:27;0.38;;;0.38;;
36725;SDS011;44936;52.086;5.150;2023-06-14T11:48:52;1.05;;;0.50;;
36725;SDS011;44936;52.086;5.150;2023-06-14T11:51:18;1.77;;;0.40;;
36725;SDS011;44936;52.086;5.150;2023-06-14T11:53:44;0.50;;;0.40;;
36725;SDS011;44936;52.086;5.150;2023-06-14T11:56:09;0.35;;;0.28;;
36725;SDS011;44936;52.086;5.150;2023-06-14T11:58:35;0.35;;;0.35;;
36725;SDS011;44936;52.086;5.150;2023-06-14T12:01:02;1.30;;;0.57;;
36725;SDS011;44936;52.086;5.150;2023-06-14T12:03:28;0.50;;;0.30;;
36725;SDS011;44936;52.086;5.150;2023-06-14T12:08:37;0.80;;;0.50;;
36725;SDS011;44936;52.086;5.150;2023-06-14T12:11:12;4.45;;;1.42;;
36725;SDS011;44936;52.086;5.150;2023-06-14T12:13:41;0.95;;;0.52;;
36725;SDS011;44936;52.086;5.150;2023-06-14T12:16:08;1.92;;;0.57;;
36725;SDS011;44936;52.086;5.150;2023-06-14T12:18:38;2.22;;;0.50;;
36725;SDS011;44936;52.086;5.150;2023-06-14T12:21:05;0.38;;;0.30;;
36725;SDS011;44936;52.086;5.150;2023-06-14T12:23:47;0.40;;;0.40;;
36725;SDS011;44936;52.086;5.150;2023-06-14T12:28:44;0.55;;;0.40;;
36725;SDS011;44936;52.086;5.150;2023-06-14T12:31:11;1.58;;;0.75;;
36725;SDS011;44936;52.086;5.150;2023-06-14T12:33:37;0.70;;;0.55;;
36725;SDS011;44936;52.086;5.150;2023-06-14T12:36:04;1.17;;;0.70;;
36725;SDS011;44936;52.086;5.150;2023-06-14T12:38:31;1.02;;;0.63;;
36725;SDS011;44936;52.086;5.150;2023-06-14T12:40:57;0.50;;;0.50;;
36725;SDS011;44936;52.086;5.150;2023-06-14T12:43:22;0.85;;;0.50;;
36725;SDS011;44936;52.086;5.150;2023-06-14T12:45:48;1.92;;;0.63;;
36725;SDS011;44936;52.086;5.150;2023-06-14T12:48:13;0.63;;;0.40;;
36725;SDS011;44936;52.086;5.150;2023-06-14T12:50:39;0.73;;;0.35;;
36725;SDS011;44936;52.086;5.150;2023-06-14T12:53:04;0.50;;;0.40;;
36725;SDS011;44936;52.086;5.150;2023-06-14T12:55:29;1.02;;;0.50;;
36725;SDS011;44936;52.086;5.150;2023-06-14T12:57:55;0.63;;;0.60;;
36725;SDS011;44936;52.086;5.150;2023-06-14T13:00:20;0.82;;;0.43;;
36725;SDS011;44936;52.086;5.150;2023-06-14T13:02:46;0.77;;;0.47;;
36725;SDS011;44936;52.086;5.150;2023-06-14T13:05:12;0.52;;;0.52;;
36725;SDS011;44936;52.086;5.150;2023-06-14T13:07:37;1.40;;;0.73;;
36725;SDS011;44936;52.086;5.150;2023-06-14T13:10:03;0.65;;;0.43;;
36725;SDS011;44936;52.086;5.150;2023-06-14T13:12:28;0.57;;;0.40;;
36725;SDS011;44936;52.086;5.150;2023-06-14T13:14:54;0.80;;;0.60;;
36725;SDS011;44936;52.086;5.150;2023-06-14T13:17:19;0.52;;;0.35;;
36725;SDS011;44936;52.086;5.150;2023-06-14T13:19:45;1.63;;;0.60;;
36725;SDS011;44936;52.086;5.150;2023-06-14T13:22:10;0.95;;;0.60;;
36725;SDS011;44936;52.086;5.150;2023-06-14T13:24:36;1.17;;;0.57;;
36725;SDS011;44936;52.086;5.150;2023-06-14T13:27:01;2.30;;;0.70;;
36725;SDS011;44936;52.086;5.150;2023-06-14T13:29:27;1.13;;;0.32;;
36725;SDS011;44936;52.086;5.150;2023-06-14T13:31:53;0.77;;;0.57;;
36725;SDS011;44936;52.086;5.150;2023-06-14T13:34:19;0.85;;;0.45;;
36725;SDS011;44936;52.086;5.150;2023-06-14T13:36:45;0.90;;;0.43;;
36725;SDS011;44936;52.086;5.150;2023-06-14T13:39:10;1.35;;;0.40;;
36725;SDS011;44936;52.086;5.150;2023-06-14T13:41:38;0.90;;;0.50;;
36725;SDS011;44936;52.086;5.150;2023-06-14T13:44:04;1.00;;;0.35;;
36725;SDS011;44936;52.086;5.150;2023-06-14T13:46:29;1.40;;;0.57;;
36725;SDS011;44936;52.086;5.150;2023-06-14T13:48:55;0.30;;;0.30;;
36725;SDS011;44936;52.086;5.150;2023-06-14T13:51:22;0.43;;;0.40;;
36725;SDS011;44936;52.086;5.150;2023-06-14T13:53:48;1.30;;;0.50;;
36725;SDS011;44936;52.086;5.150;2023-06-14T13:56:14;1.20;;;0.40;;
36725;SDS011;44936;52.086;5.150;2023-06-14T13:58:40;0.50;;;0.32;;
36725;SDS011;44936;52.086;5.150;2023-06-14T14:01:05;2.90;;;0.60;;
36725;SDS011;44936;52.086;5.150;2023-06-14T14:03:32;1.02;;;0.40;;
36725;SDS011;44936;52.086;5.150;2023-06-14T14:05:58;0.30;;;0.30;;
36725;SDS011;44936;52.086;5.150;2023-06-14T14:08:23;1.40;;;0.45;;
36725;SDS011;44936;52.086;5.150;2023-06-14T14:10:49;0.73;;;0.43;;
36725;SDS011;44936;52.086;5.150;2023-06-14T14:13:15;0.40;;;0.30;;
36725;SDS011;44936;52.086;5.150;2023-06-14T14:15:40;0.50;;;0.50;;
36725;SDS011;44936;52.086;5.150;2023-06-14T14:18:05;0.88;;;0.60;;
36725;SDS011;44936;52.086;5.150;2023-06-14T14:20:32;0.47;;;0.40;;
36725;SDS011;44936;52.086;5.150;2023-06-14T14:22:57;3.28;;;0.73;;
36725;SDS011;44936;52.086;5.150;2023-06-14T14:25:22;0.52;;;0.47;;
36725;SDS011;44936;52.086;5.150;2023-06-14T14:27:48;0.25;;;0.25;;
36725;SDS011;44936;52.086;5.150;2023-06-14T14:30:13;1.45;;;0.70;;
36725;SDS011;44936;52.086;5.150;2023-06-14T14:32:41;0.63;;;0.40;;
36725;SDS011;44936;52.086;5.150;2023-06-14T14:35:07;2.00;;;0.90;;
36725;SDS011;44936;52.086;5.150;2023-06-14T14:37:33;1.85;;;0.40;;
36725;SDS011;44936;52.086;5.150;2023-06-14T14:39:58;0.40;;;0.40;;
36725;SDS011;44936;52.086;5.150;2023-06-14T14:42:23;2.70;;;0.68;;
36725;SDS011;44936;52.086;5.150;2023-06-14T14:44:51;0.85;;;0.30;;
36725;SDS011;44936;52.086;5.150;2023-06-14T14:47:16;1.27;;;0.40;;
36725;SDS011;44936;52.086;5.150;2023-06-14T14:49:42;1.10;;;0.40;;
36725;SDS011;44936;52.086;5.150;2023-06-14T14:52:07;0.85;;;0.50;;
36725;SDS011;44936;52.086;5.150;2023-06-14T14:54:32;0.80;;;0.40;;
36725;SDS011;44936;52.086;5.150;2023-06-14T14:56:58;0.87;;;0.43;;
36725;SDS011;44936;52.086;5.150;2023-06-14T14:59:23;3.03;;;0.50;;
36725;SDS011;44936;52.086;5.150;2023-06-14T15:01:49;1.63;;;0.60;;